sensor_id;sensor_type;location;lat;lon;timestamp;temperature;humidity
55054;DHT22;40954;45.668;18.980;2023-09-19T00:00:06;666.50;2432.00
55054;DHT22;40954;45.668;18.980;2023-09-19T00:02:32;666.50;2432.00
55054;DHT22;40954;45.668;18.980;2023-09-19T00:04:58;666.50;2432.00
55054;DHT22;40954;45.668;18.980;2023-09-19T00:07:24;666.50;2432.00
55054;DHT22;40954;45.668;18.980;2023-09-19T00:09:50;666.50;2432.00
55054;DHT22;40954;45.668;18.980;2023-09-19T00:12:15;666.40;2432.00
55054;DHT22;40954;45.668;18.980;2023-09-19T00:14:41;666.40;2432.00
55054;DHT22;40954;45.668;18.980;2023-09-19T00:17:07;666.40;2432.00
55054;DHT22;40954;45.668;18.980;2023-09-19T00:19:36;666.40;2432.00
55054;DHT22;40954;45.668;18.980;2023-09-19T00:22:03;666.40;2432.00
55054;DHT22;40954;45.668;18.980;2023-09-19T00:24:30;666.40;2432.00
55054;DHT22;40954;45.668;18.980;2023-09-19T00:26:58;666.30;2432.00
55054;DHT22;40954;45.668;18.980;2023-09-19T00:29:25;666.30;2432.00
55054;DHT22;40954;45.668;18.980;2023-09-19T00:31:55;666.30;2432.00
55054;DHT22;40954;45.668;18.980;2023-09-19T00:34:22;666.20;2432.00
55054;DHT22;40954;45.668;18.980;2023-09-19T00:36:48;666.20;2432.00
55054;DHT22;40954;45.668;18.980;2023-09-19T00:39:14;666.20;2432.00
55054;DHT22;40954;45.668;18.980;2023-09-19T00:41:39;666.20;2432.00
55054;DHT22;40954;45.668;18.980;2023-09-19T00:44:06;666.00;2432.00
55054;DHT22;40954;45.668;18.980;2023-09-19T00:46:32;666.10;2432.00
55054;DHT22;40954;45.668;18.980;2023-09-19T00:48:58;666.20;2432.00
55054;DHT22;40954;45.668;18.980;2023-09-19T00:51:25;666.20;2432.00
55054;DHT22;40954;45.668;18.980;2023-09-19T00:53:53;666.30;2432.00
55054;DHT22;40954;45.668;18.980;2023-09-19T00:56:19;666.30;2432.00
55054;DHT22;40954;45.668;18.980;2023-09-19T00:58:46;666.30;2432.00
55054;DHT22;40954;45.668;18.980;2023-09-19T01:01:13;666.40;2432.00
55054;DHT22;40954;45.668;18.980;2023-09-19T01:03:41;666.30;2432.00
55054;DHT22;40954;45.668;18.980;2023-09-19T01:06:07;666.20;2432.00
55054;DHT22;40954;45.668;18.980;2023-09-19T01:08:36;666.10;2432.00
55054;DHT22;40954;45.668;18.980;2023-09-19T01:11:28;665.70;2432.00
55054;DHT22;40954;45.668;18.980;2023-09-19T01:14:05;665.70;2432.00
55054;DHT22;40954;45.668;18.980;2023-09-19T01:16:41;640.80;2432.00
55054;DHT22;40954;45.668;18.980;2023-09-19T03:02:37;640.30;2432.00
55054;DHT22;40954;45.668;18.980;2023-09-19T03:05:06;615.30;2432.00
55054;DHT22;40954;45.668;18.980;2023-09-19T03:07:32;615.20;2432.00
55054;DHT22;40954;45.668;18.980;2023-09-19T03:09:59;615.30;2432.00
55054;DHT22;40954;45.668;18.980;2023-09-19T04:08:42;614.50;2432.00
55054;DHT22;40954;45.668;18.980;2023-09-19T04:11:09;614.40;2432.00
55054;DHT22;40954;45.668;18.980;2023-09-19T04:13:35;589.60;2432.00
55054;DHT22;40954;45.668;18.980;2023-09-19T04:16:00;589.50;2432.00
55054;DHT22;40954;45.668;18.980;2023-09-19T04:18:26;589.30;2432.00
55054;DHT22;40954;45.668;18.980;2023-09-19T04:20:52;589.40;2432.00
55054;DHT22;40954;45.668;18.980;2023-09-19T04:23:19;589.60;2432.00
55054;DHT22;40954;45.668;18.980;2023-09-19T04:25:47;589.40;2432.00
55054;DHT22;40954;45.668;18.980;2023-09-19T04:28:13;589.40;2432.00
55054;DHT22;40954;45.668;18.980;2023-09-19T04:33:08;589.30;2432.00
55054;DHT22;40954;45.668;18.980;2023-09-19T04:35:34;589.40;2432.00
55054;DHT22;40954;45.668;18.980;2023-09-19T04:38:00;589.30;2432.00
55054;DHT22;40954;45.668;18.980;2023-09-19T04:42:58;589.30;2432.00
55054;DHT22;40954;45.668;18.980;2023-09-19T04:45:26;589.30;2432.00
55054;DHT22;40954;45.668;18.980;2023-09-19T04:47:53;589.40;2432.00
55054;DHT22;40954;45.668;18.980;2023-09-19T04:50:19;589.40;2432.00
55054;DHT22;40954;45.668;18.980;2023-09-19T04:52:49;589.40;2432.00
55054;DHT22;40954;45.668;18.980;2023-09-19T04:55:17;589.50;2432.00
55054;DHT22;40954;45.668;18.980;2023-09-19T04:57:50;589.50;2432.00
55054;DHT22;40954;45.668;18.980;2023-09-19T05:00:18;589.60;2432.00
55054;DHT22;40954;45.668;18.980;2023-09-19T05:02:51;589.60;2432.00
55054;DHT22;40954;45.668;18.980;2023-09-19T05:05:17;589.70;2432.00
55054;DHT22;40954;45.668;18.980;2023-09-19T05:07:44;614.50;2432.00
55054;DHT22;40954;45.668;18.980;2023-09-19T05:15:05;614.70;2432.00
55054;DHT22;40954;45.668;18.980;2023-09-19T05:17:33;614.90;2432.00
55054;DHT22;40954;45.668;18.980;2023-09-19T05:19:59;615.00;2432.00
55054;DHT22;40954;45.668;18.980;2023-09-19T05:22:31;615.10;2432.00
55054;DHT22;40954;45.668;18.980;2023-09-19T06:06:34;615.30;2432.00
55054;DHT22;40954;45.668;18.980;2023-09-19T06:09:04;615.30;2432.00
55054;DHT22;40954;45.668;18.980;2023-09-19T06:11:31;615.30;2432.00
55054;DHT22;40954;45.668;18.980;2023-09-19T06:14:01;640.00;2432.00
55054;DHT22;40954;45.668;18.980;2023-09-19T06:16:28;640.00;2432.00
55054;DHT22;40954;45.668;18.980;2023-09-19T06:18:54;640.10;2432.00
55054;DHT22;40954;45.668;18.980;2023-09-19T07:59:41;640.10;2432.00
55054;DHT22;40954;45.668;18.980;2023-09-19T08:02:08;794.10;2432.00
55054;DHT22;40954;45.668;18.980;2023-09-19T08:04:35;768.90;2432.00
55054;DHT22;40954;45.668;18.980;2023-09-19T08:07:01;768.90;2432.00
55054;DHT22;40954;45.668;18.980;2023-09-19T08:09:29;768.20;2432.00
55054;DHT22;40954;45.668;18.980;2023-09-19T08:11:59;743.30;2432.00
55054;DHT22;40954;45.668;18.980;2023-09-19T08:14:28;743.30;2432.00
55054;DHT22;40954;45.668;18.980;2023-09-19T08:16:57;768.50;2432.00
55054;DHT22;40954;45.668;18.980;2023-09-19T08:19:27;768.80;2432.00
55054;DHT22;40954;45.668;18.980;2023-09-19T08:21:57;794.00;2432.00
55054;DHT22;40954;45.668;18.980;2023-09-19T08:24:25;794.40;2432.00
55054;DHT22;40954;45.668;18.980;2023-09-19T08:26:54;768.80;2432.00
55054;DHT22;40954;45.668;18.980;2023-09-19T08:29:20;768.90;2432.00
55054;DHT22;40954;45.668;18.980;2023-09-19T08:31:46;794.30;2432.00
55054;DHT22;40954;45.668;18.980;2023-09-19T08:34:15;819.90;2432.00
55054;DHT22;40954;45.668;18.980;2023-09-19T08:36:41;845.30;2432.00
55054;DHT22;40954;45.668;18.980;2023-09-19T08:39:09;845.40;2432.00
55054;DHT22;40954;45.668;18.980;2023-09-19T08:44:00;870.40;2432.00
55054;DHT22;40954;45.668;18.980;2023-09-19T08:46:30;870.60;2432.00
55054;DHT22;40954;45.668;18.980;2023-09-19T08:49:04;870.60;2432.00
55054;DHT22;40954;45.668;18.980;2023-09-19T08:51:45;870.40;2432.00
55054;DHT22;40954;45.668;18.980;2023-09-19T08:59:33;871.20;2432.00
55054;DHT22;40954;45.668;18.980;2023-09-19T09:02:02;845.50;2432.00
55054;DHT22;40954;45.668;18.980;2023-09-19T09:04:29;819.70;2432.00
55054;DHT22;40954;45.668;18.980;2023-09-19T09:06:56;793.80;2432.00
55054;DHT22;40954;45.668;18.980;2023-09-19T09:09:23;768.20;2432.00
55054;DHT22;40954;45.668;18.980;2023-09-19T09:11:50;768.20;2432.00
55054;DHT22;40954;45.668;18.980;2023-09-19T09:14:20;743.20;2432.00
55054;DHT22;40954;45.668;18.980;2023-09-19T09:16:46;743.20;2432.00
55054;DHT22;40954;45.668;18.980;2023-09-19T09:19:14;743.00;2432.00
55054;DHT22;40954;45.668;18.980;2023-09-19T09:21:46;742.80;2432.00
55054;DHT22;40954;45.668;18.980;2023-09-19T09:24:31;742.70;2432.00
55054;DHT22;40954;45.668;18.980;2023-09-19T09:26:59;717.70;2432.00
55054;DHT22;40954;45.668;18.980;2023-09-19T09:29:44;717.50;2432.00
55054;DHT22;40954;45.668;18.980;2023-09-19T09:34:55;717.30;2432.00
55054;DHT22;40954;45.668;18.980;2023-09-19T09:37:22;717.00;2432.00
55054;DHT22;40954;45.668;18.980;2023-09-19T09:39:55;716.80;2432.00
55054;DHT22;40954;45.668;18.980;2023-09-19T09:42:38;716.90;2432.00
55054;DHT22;40954;45.668;18.980;2023-09-19T09:45:23;717.40;2432.00
55054;DHT22;40954;45.668;18.980;2023-09-19T09:47:59;717.60;2432.00
55054;DHT22;40954;45.668;18.980;2023-09-19T09:50:46;742.70;2432.00
55054;DHT22;40954;45.668;18.980;2023-09-19T09:53:26;768.10;2432.00
55054;DHT22;40954;45.668;18.980;2023-09-19T09:56:01;794.00;2432.00
55054;DHT22;40954;45.668;18.980;2023-09-19T09:58:49;819.50;2432.00
55054;DHT22;40954;45.668;18.980;2023-09-19T10:01:15;794.10;2432.00
55054;DHT22;40954;45.668;18.980;2023-09-19T10:03:42;794.30;2432.00
55054;DHT22;40954;45.668;18.980;2023-09-19T10:06:16;768.80;2432.00
55054;DHT22;40954;45.668;18.980;2023-09-19T10:09:17;768.00;2432.00
55054;DHT22;40954;45.668;18.980;2023-09-19T10:12:07;768.90;2432.00
55054;DHT22;40954;45.668;18.980;2023-09-19T10:14:38;768.90;2432.00
55054;DHT22;40954;45.668;18.980;2023-09-19T10:17:10;768.30;2432.00
55054;DHT22;40954;45.668;18.980;2023-09-19T10:22:02;768.60;2432.00
55054;DHT22;40954;45.668;18.980;2023-09-19T10:24:28;768.30;2432.00
55054;DHT22;40954;45.668;18.980;2023-09-19T10:26:57;743.30;2432.00
55054;DHT22;40954;45.668;18.980;2023-09-19T10:29:24;819.20;2432.00
55054;DHT22;40954;45.668;18.980;2023-09-19T10:39:15;998.70;2432.00
55054;DHT22;40954;45.668;18.980;2023-09-19T10:41:54;999.30;2432.00
55054;DHT22;40954;45.668;18.980;2023-09-19T10:44:24;1024.00;2432.00
55054;DHT22;40954;45.668;18.980;2023-09-19T10:46:54;999.20;2432.00
55054;DHT22;40954;45.668;18.980;2023-09-19T10:49:20;1024.00;2432.00
55054;DHT22;40954;45.668;18.980;2023-09-19T10:51:48;1024.00;2432.00
55054;DHT22;40954;45.668;18.980;2023-09-19T10:56:49;1050.30;2432.00
55054;DHT22;40954;45.668;18.980;2023-09-19T11:01:48;1100.90;2432.00
55054;DHT22;40954;45.668;18.980;2023-09-19T11:04:32;1101.20;2432.00
55054;DHT22;40954;45.668;18.980;2023-09-19T11:07:06;1101.70;2432.00
55054;DHT22;40954;45.668;18.980;2023-09-19T11:30:49;1127.20;2432.00
55054;DHT22;40954;45.668;18.980;2023-09-19T11:33:16;1126.70;2432.00
55054;DHT22;40954;45.668;18.980;2023-09-19T11:49:05;973.40;2432.00
55054;DHT22;40954;45.668;18.980;2023-09-19T11:51:40;973.00;2432.00
55054;DHT22;40954;45.668;18.980;2023-09-19T11:54:11;999.20;2432.00
55054;DHT22;40954;45.668;18.980;2023-09-19T11:56:52;1049.70;2432.00
55054;DHT22;40954;45.668;18.980;2023-09-19T11:59:23;1050.20;2432.00
55054;DHT22;40954;45.668;18.980;2023-09-19T12:01:51;1049.90;2432.00
55054;DHT22;40954;45.668;18.980;2023-09-19T12:04:40;1024.10;2432.00
55054;DHT22;40954;45.668;18.980;2023-09-19T12:07:10;1024.00;2432.00
55054;DHT22;40954;45.668;18.980;2023-09-19T12:09:47;998.60;2432.00
55054;DHT22;40954;45.668;18.980;2023-09-19T12:12:28;973.50;2432.00
55054;DHT22;40954;45.668;18.980;2023-09-19T12:14:56;973.70;2432.00
55054;DHT22;40954;45.668;18.980;2023-09-19T12:17:41;998.90;2432.00
55054;DHT22;40954;45.668;18.980;2023-09-19T12:20:10;998.80;2432.00
55054;DHT22;40954;45.668;18.980;2023-09-19T12:22:47;999.00;2432.00
55054;DHT22;40954;45.668;18.980;2023-09-19T12:25:14;1024.30;2432.00
55054;DHT22;40954;45.668;18.980;2023-09-19T12:27:48;1049.60;2432.00
55054;DHT22;40954;45.668;18.980;2023-09-19T12:30:16;1075.50;2432.00
55054;DHT22;40954;45.668;18.980;2023-09-19T12:32:44;1101.20;2432.00
55054;DHT22;40954;45.668;18.980;2023-09-19T12:35:27;1101.20;2432.00
55054;DHT22;40954;45.668;18.980;2023-09-19T12:37:54;1024.80;2432.00
55054;DHT22;40954;45.668;18.980;2023-09-19T12:40:21;999.10;2432.00
55054;DHT22;40954;45.668;18.980;2023-09-19T12:42:49;1049.60;2432.00
55054;DHT22;40954;45.668;18.980;2023-09-19T12:45:15;1024.60;2432.00
55054;DHT22;40954;45.668;18.980;2023-09-19T12:51:06;1024.30;2432.00
55054;DHT22;40954;45.668;18.980;2023-09-19T12:53:40;1049.60;2432.00
55054;DHT22;40954;45.668;18.980;2023-09-19T12:56:12;1024.30;2432.00
55054;DHT22;40954;45.668;18.980;2023-09-19T12:58:57;1024.20;2432.00
55054;DHT22;40954;45.668;18.980;2023-09-19T13:01:26;973.70;2432.00
55054;DHT22;40954;45.668;18.980;2023-09-19T13:04:12;973.70;2432.00
55054;DHT22;40954;45.668;18.980;2023-09-19T13:06:38;973.10;2432.00
55054;DHT22;40954;45.668;18.980;2023-09-19T13:09:09;948.10;2432.00
55054;DHT22;40954;45.668;18.980;2023-09-19T13:11:39;947.90;2432.00
55054;DHT22;40954;45.668;18.980;2023-09-19T13:14:27;922.40;2432.00
55054;DHT22;40954;45.668;18.980;2023-09-19T13:17:01;921.90;2432.00
55054;DHT22;40954;45.668;18.980;2023-09-19T14:31:06;871.20;2432.00
55054;DHT22;40954;45.668;18.980;2023-09-19T14:33:32;870.50;2432.00
55054;DHT22;40954;45.668;18.980;2023-09-19T14:36:00;845.30;2432.00
55054;DHT22;40954;45.668;18.980;2023-09-19T14:46:08;819.90;2432.00
55054;DHT22;40954;45.668;18.980;2023-09-19T14:48:35;845.70;2432.00
55054;DHT22;40954;45.668;18.980;2023-09-19T14:51:05;871.20;2432.00
55054;DHT22;40954;45.668;18.980;2023-09-19T14:53:31;896.00;2432.00
55054;DHT22;40954;45.668;18.980;2023-09-19T14:56:01;870.80;2432.00
55054;DHT22;40954;45.668;18.980;2023-09-19T14:58:29;845.10;2432.00
55054;DHT22;40954;45.668;18.980;2023-09-19T15:55:25;819.20;2432.00
55054;DHT22;40954;45.668;18.980;2023-09-19T15:57:51;716.80;2432.00
55054;DHT22;40954;45.668;18.980;2023-09-19T16:00:18;716.80;2432.00
55054;DHT22;40954;45.668;18.980;2023-09-19T16:02:45;692.00;2432.00
55054;DHT22;40954;45.668;18.980;2023-09-19T16:05:11;692.00;2432.00
55054;DHT22;40954;45.668;18.980;2023-09-19T16:07:37;691.70;2432.00
55054;DHT22;40954;45.668;18.980;2023-09-19T16:10:04;691.70;2432.00
55054;DHT22;40954;45.668;18.980;2023-09-19T16:12:29;691.60;2432.00
55054;DHT22;40954;45.668;18.980;2023-09-19T16:14:56;691.40;2432.00
55054;DHT22;40954;45.668;18.980;2023-09-19T16:17:22;691.30;2432.00
55054;DHT22;40954;45.668;18.980;2023-09-19T16:19:47;666.50;2432.00
55054;DHT22;40954;45.668;18.980;2023-09-19T16:22:13;666.50;2432.00
55054;DHT22;40954;45.668;18.980;2023-09-19T16:24:39;691.20;2432.00
55054;DHT22;40954;45.668;18.980;2023-09-19T16:27:05;666.40;2432.00
55054;DHT22;40954;45.668;18.980;2023-09-19T16:29:31;666.20;2432.00
55054;DHT22;40954;45.668;18.980;2023-09-19T16:31:57;666.20;2432.00
55054;DHT22;40954;45.668;18.980;2023-09-19T16:34:22;666.10;2432.00
55054;DHT22;40954;45.668;18.980;2023-09-19T16:36:48;666.00;2432.00
55054;DHT22;40954;45.668;18.980;2023-09-19T16:39:14;665.90;2432.00
55054;DHT22;40954;45.668;18.980;2023-09-19T16:41:40;665.80;2432.00
55054;DHT22;40954;45.668;18.980;2023-09-19T16:44:07;640.90;2432.00
55054;DHT22;40954;45.668;18.980;2023-09-19T16:46:34;640.80;2432.00
55054;DHT22;40954;45.668;18.980;2023-09-19T18:24:40;640.80;2432.00
55054;DHT22;40954;45.668;18.980;2023-09-19T18:27:07;588.90;2432.00
55054;DHT22;40954;45.668;18.980;2023-09-19T18:29:34;588.80;2432.00
55054;DHT22;40954;45.668;18.980;2023-09-19T18:32:00;588.80;2432.00
55054;DHT22;40954;45.668;18.980;2023-09-19T18:34:26;588.90;2432.00
55054;DHT22;40954;45.668;18.980;2023-09-19T18:36:51;588.90;2432.00
55054;DHT22;40954;45.668;18.980;2023-09-19T18:39:20;588.90;2432.00
55054;DHT22;40954;45.668;18.980;2023-09-19T18:41:50;589.00;2432.00
55054;DHT22;40954;45.668;18.980;2023-09-19T18:44:16;589.00;2432.00
55054;DHT22;40954;45.668;18.980;2023-09-19T18:46:42;589.00;2432.00
55054;DHT22;40954;45.668;18.980;2023-09-19T18:49:10;589.10;2432.00
55054;DHT22;40954;45.668;18.980;2023-09-19T18:51:39;589.10;2432.00
55054;DHT22;40954;45.668;18.980;2023-09-19T18:54:06;589.00;2432.00
55054;DHT22;40954;45.668;18.980;2023-09-19T18:56:32;588.80;2432.00
55054;DHT22;40954;45.668;18.980;2023-09-19T20:20:07;564.10;2432.00
55054;DHT22;40954;45.668;18.980;2023-09-19T22:10:46;563.50;2432.00
